Lindsay Nobles — WDI2220 — position and weather

sailwx.info

Track history (hours):
 
Tides and Currents Weather Stations Pressure Air Temp Water Temp Dewpoint Dewpoint Depression Visibility Wind Speed Wind Dir Waves Ship Positions

Lindsay Nobles

Owner: Genesis Marine, Houston, TX. More information available from US FCC via Universal Licensing System and Coast Guard Vessel Documentation Center.

Last reported at 2017-Sep-22 02:00 UTC. Time now 2017-Sep-23 03:46 UTC.
Position N 29°44' W 095°03'.

Length 32 m; draft 3 m.

Type: Ship (hazmat cat A). MMSI: 367675910.

Date/timePositionNaut miles runAvg speedWind from/ knotsBaromVisibWave heightAir tempDewpointWater temp
2017-Sep-22 02:00N 29°44' W 095°03'1 2.8
2017-Sep-22 01:29N 29°45' W 095°04'2 4.2
2017-Sep-22 00:57N 29°46' W 095°06'0 0.0
2017-Sep-22 00:30N 29°46' W 095°06'0 0.0
2017-Sep-22 00:00N 29°46' W 095°06'0 0.0
2017-Sep-21 23:29N 29°46' W 095°06'1 1.3
2017-Sep-21 23:00N 29°46' W 095°05'2 4.3
2017-Sep-21 22:30N 29°47' W 095°04'0 0.0
2017-Sep-21 22:00N 29°47' W 095°04'0 0.1
2017-Sep-21 21:26N 29°47' W 095°04'1 0.7
2017-Sep-21 20:25N 29°47' W 095°04'3 5.5
2017-Sep-21 19:50N 29°44' W 095°07'2 6.5
2017-Sep-21 19:28N 29°44' W 095°09'3 5.4
2017-Sep-21 18:55N 29°44' W 095°13'2 3.8
2017-Sep-21 18:30N 29°43' W 095°14'0 0.1
2017-Sep-21 17:59N 29°43' W 095°14'0 0.0
2017-Sep-21 17:27N 29°43' W 095°14'0 0.0
2017-Sep-21 16:58N 29°43' W 095°14'0 0.0
2017-Sep-21 16:19N 29°43' W 095°14'0 0.0
2017-Sep-21 15:12N 29°43' W 095°14'0 0.0
2017-Sep-21 14:45N 29°43' W 095°14'0 0.0
2017-Sep-21 14:15N 29°43' W 095°14'0 0.0
2017-Sep-21 13:51N 29°43' W 095°14'0 0.0
2017-Sep-21 02:41N 29°43' W 095°14'0 0.0
2017-Sep-21 02:27N 29°43' W 095°14'3 3.0
2017-Sep-21 01:16N 29°45' W 095°11'2 5.9
2017-Sep-21 00:59N 29°44' W 095°09'3 5.8
2017-Sep-21 00:23N 29°46' W 095°05'2 4.2
2017-Sep-20 23:51N 29°47' W 095°04'0 0.1
2017-Sep-20 23:17N 29°47' W 095°04'0 0.2
2017-Sep-20 22:38N 29°47' W 095°04'0 0.0
2017-Sep-20 22:30N 29°47' W 095°04'1 1.4
2017-Sep-20 21:53N 29°47' W 095°05'2 5.8
2017-Sep-20 21:29N 29°45' W 095°04'3 5.9
2017-Sep-20 21:00N 29°43' W 095°01'3 6.2
2017-Sep-20 20:30N 29°41' W 094°59'3 6.8
2017-Sep-20 20:00N 29°37' W 094°57'3 6.9
2017-Sep-20 19:30N 29°34' W 094°55'4 6.8
2017-Sep-20 18:59N 29°31' W 094°53'2 0.0
2017-Sep-18 21:09N 29°30' W 094°52'1 8.1
2017-Sep-18 21:00N 29°31' W 094°53'4 8.0
2017-Sep-18 20:30N 29°34' W 094°55'4 8.1
2017-Sep-18 20:00N 29°38' W 094°58'4 8.0
2017-Sep-18 19:30N 29°41' W 094°59'4 7.1
2017-Sep-18 19:00N 29°44' W 095°02'4 7.2
2017-Sep-18 18:30N 29°46' W 095°05'0 0.0
2017-Sep-17 12:04N 29°46' W 095°05'0 4.0
2017-Sep-17 12:00N 29°46' W 095°05'3 5.1
2017-Sep-17 11:29N 29°44' W 095°03'0 0.1
2017-Sep-17 10:50N 29°44' W 095°03'0 0.0
2017-Sep-17 10:28N 29°44' W 095°03'0 0.0
2017-Sep-17 09:58N 29°44' W 095°03'0 0.0
2017-Sep-17 09:30N 29°44' W 095°03'0 0.0
2017-Sep-17 09:01N 29°44' W 095°03'0 0.0
2017-Sep-17 08:30N 29°44' W 095°03'0 0.0
2017-Sep-17 08:00N 29°44' W 095°03'0 0.0
2017-Sep-17 07:30N 29°44' W 095°03'0 0.0
2017-Sep-17 07:00N 29°44' W 095°03'0 0.0
2017-Sep-17 06:30N 29°44' W 095°03'0 0.0
2017-Sep-17 06:01N 29°44' W 095°03'0 0.0
2017-Sep-17 05:30N 29°44' W 095°03'0 0.0
2017-Sep-17 05:00N 29°44' W 095°03'0 0.0
2017-Sep-17 04:30N 29°44' W 095°03'0 0.0
2017-Sep-17 04:00N 29°44' W 095°03'0 0.0
2017-Sep-17 03:30N 29°44' W 095°03'0 0.0
2017-Sep-17 03:00N 29°44' W 095°03'0 0.0
2017-Sep-17 02:30N 29°44' W 095°03'0 0.0
2017-Sep-17 02:01N 29°44' W 095°03'0 0.0
2017-Sep-17 01:30N 29°44' W 095°03'0 0.0
2017-Sep-17 01:00N 29°44' W 095°03'0 0.0
2017-Sep-17 00:30N 29°44' W 095°03'0 0.0
2017-Sep-17 00:00N 29°44' W 095°03'0 0.0
2017-Sep-16 23:30N 29°44' W 095°03'0 0.0
2017-Sep-16 23:00N 29°44' W 095°03'0 0.0
2017-Sep-16 22:30N 29°44' W 095°03'0 0.0
2017-Sep-16 22:00N 29°44' W 095°03'0 0.0
2017-Sep-16 21:30N 29°44' W 095°03'0 0.0
2017-Sep-16 21:00N 29°44' W 095°03'0 0.0
2017-Sep-16 20:30N 29°44' W 095°03'0 0.0
2017-Sep-16 20:00N 29°44' W 095°03'0 0.0
2017-Sep-16 19:31N 29°44' W 095°03'0 0.0
2017-Sep-16 19:00N 29°44' W 095°03'0 0.0
2017-Sep-16 18:30N 29°44' W 095°03'0 0.0
2017-Sep-16 18:00N 29°44' W 095°03'0 0.1
2017-Sep-16 17:24N 29°44' W 095°03'0 0.0
2017-Sep-16 17:00N 29°44' W 095°03'0 0.8
2017-Sep-16 16:30N 29°44' W 095°03'2 2.6
2017-Sep-16 15:53N 29°46' W 095°04'2 2.5
2017-Sep-16 15:12N 29°47' W 095°04'0 0.8
2017-Sep-16 14:45N 29°47' W 095°04'2 0.3
2017-Sep-16 09:01N 29°46' W 095°05'0 6.8
2017-Sep-16 09:00N 29°46' W 095°05'1 0.3
2017-Sep-16 05:49N 29°46' W 095°06'0 0.0
2017-Sep-16 05:17N 29°46' W 095°06'0 0.0
2017-Sep-16 04:56N 29°46' W 095°06'0 0.0
2017-Sep-16 04:29N 29°46' W 095°06'1 1.6
2017-Sep-16 04:00N 29°46' W 095°05'0 0.3
2017-Sep-16 02:09N 29°46' W 095°05'1 4.1
2017-Sep-16 01:58N 29°45' W 095°04'2 4.8
2017-Sep-16 01:29N 29°44' W 095°02'3 5.6
2017-Sep-16 01:00N 29°42' W 094°60'3 5.8
2017-Sep-16 00:30N 29°39' W 094°58'4 7.2
2017-Sep-16 00:00N 29°36' W 094°57'3 7.0
2017-Sep-15 23:30N 29°33' W 094°55'3 6.9
2017-Sep-15 23:00N 29°30' W 094°52'  
Track history (hours):
 
Tides and Currents Weather Stations Pressure Air Temp Water Temp Dewpoint Dewpoint Depression Visibility Wind Speed Wind Dir Waves Ship Positions

Lindsay Nobles

Owner: Genesis Marine, Houston, TX. More information available from US FCC via Universal Licensing System and Coast Guard Vessel Documentation Center.

Last reported at 2017-Sep-22 02:00 UTC. Time now 2017-Sep-23 03:46 UTC.
Position N 29°44' W 095°03'.

Length 32 m; draft 3 m.

Type: Ship (hazmat cat A). MMSI: 367675910.

Date/timePositionNaut miles runAvg speedWind from/ knotsBaromVisibWave heightAir tempDewpointWater temp
2017-Sep-22 02:00N 29°44' W 095°03'1 2.8
2017-Sep-22 01:29N 29°45' W 095°04'2 4.2
2017-Sep-22 00:57N 29°46' W 095°06'0 0.0
2017-Sep-22 00:30N 29°46' W 095°06'0 0.0
2017-Sep-22 00:00N 29°46' W 095°06'0 0.0
2017-Sep-21 23:29N 29°46' W 095°06'1 1.3
2017-Sep-21 23:00N 29°46' W 095°05'2 4.3
2017-Sep-21 22:30N 29°47' W 095°04'0 0.0
2017-Sep-21 22:00N 29°47' W 095°04'0 0.1
2017-Sep-21 21:26N 29°47' W 095°04'1 0.7
2017-Sep-21 20:25N 29°47' W 095°04'3 5.5
2017-Sep-21 19:50N 29°44' W 095°07'2 6.5
2017-Sep-21 19:28N 29°44' W 095°09'3 5.4
2017-Sep-21 18:55N 29°44' W 095°13'2 3.8
2017-Sep-21 18:30N 29°43' W 095°14'0 0.1
2017-Sep-21 17:59N 29°43' W 095°14'0 0.0
2017-Sep-21 17:27N 29°43' W 095°14'0 0.0
2017-Sep-21 16:58N 29°43' W 095°14'0 0.0
2017-Sep-21 16:19N 29°43' W 095°14'0 0.0
2017-Sep-21 15:12N 29°43' W 095°14'0 0.0
2017-Sep-21 14:45N 29°43' W 095°14'0 0.0
2017-Sep-21 14:15N 29°43' W 095°14'0 0.0
2017-Sep-21 13:51N 29°43' W 095°14'0 0.0
2017-Sep-21 02:41N 29°43' W 095°14'0 0.0
2017-Sep-21 02:27N 29°43' W 095°14'3 3.0
2017-Sep-21 01:16N 29°45' W 095°11'2 5.9
2017-Sep-21 00:59N 29°44' W 095°09'3 5.8
2017-Sep-21 00:23N 29°46' W 095°05'2 4.2
2017-Sep-20 23:51N 29°47' W 095°04'0 0.1
2017-Sep-20 23:17N 29°47' W 095°04'0 0.2
2017-Sep-20 22:38N 29°47' W 095°04'0 0.0
2017-Sep-20 22:30N 29°47' W 095°04'1 1.4
2017-Sep-20 21:53N 29°47' W 095°05'2 5.8
2017-Sep-20 21:29N 29°45' W 095°04'3 5.9
2017-Sep-20 21:00N 29°43' W 095°01'3 6.2
2017-Sep-20 20:30N 29°41' W 094°59'3 6.8
2017-Sep-20 20:00N 29°37' W 094°57'3 6.9
2017-Sep-20 19:30N 29°34' W 094°55'4 6.8
2017-Sep-20 18:59N 29°31' W 094°53'2 0.0
2017-Sep-18 21:09N 29°30' W 094°52'1 8.1
2017-Sep-18 21:00N 29°31' W 094°53'4 8.0
2017-Sep-18 20:30N 29°34' W 094°55'4 8.1
2017-Sep-18 20:00N 29°38' W 094°58'4 8.0
2017-Sep-18 19:30N 29°41' W 094°59'4 7.1
2017-Sep-18 19:00N 29°44' W 095°02'4 7.2
2017-Sep-18 18:30N 29°46' W 095°05'0 0.0
2017-Sep-17 12:04N 29°46' W 095°05'0 4.0
2017-Sep-17 12:00N 29°46' W 095°05'3 5.1
2017-Sep-17 11:29N 29°44' W 095°03'0 0.1
2017-Sep-17 10:50N 29°44' W 095°03'0 0.0
2017-Sep-17 10:28N 29°44' W 095°03'0 0.0
2017-Sep-17 09:58N 29°44' W 095°03'0 0.0
2017-Sep-17 09:30N 29°44' W 095°03'0 0.0
2017-Sep-17 09:01N 29°44' W 095°03'0 0.0
2017-Sep-17 08:30N 29°44' W 095°03'0 0.0
2017-Sep-17 08:00N 29°44' W 095°03'0 0.0
2017-Sep-17 07:30N 29°44' W 095°03'0 0.0
2017-Sep-17 07:00N 29°44' W 095°03'0 0.0
2017-Sep-17 06:30N 29°44' W 095°03'0 0.0
2017-Sep-17 06:01N 29°44' W 095°03'0 0.0
2017-Sep-17 05:30N 29°44' W 095°03'0 0.0
2017-Sep-17 05:00N 29°44' W 095°03'0 0.0
2017-Sep-17 04:30N 29°44' W 095°03'0 0.0
2017-Sep-17 04:00N 29°44' W 095°03'0 0.0
2017-Sep-17 03:30N 29°44' W 095°03'0 0.0
2017-Sep-17 03:00N 29°44' W 095°03'0 0.0
2017-Sep-17 02:30N 29°44' W 095°03'0 0.0
2017-Sep-17 02:01N 29°44' W 095°03'0 0.0
2017-Sep-17 01:30N 29°44' W 095°03'0 0.0
2017-Sep-17 01:00N 29°44' W 095°03'0 0.0
2017-Sep-17 00:30N 29°44' W 095°03'0 0.0
2017-Sep-17 00:00N 29°44' W 095°03'0 0.0
2017-Sep-16 23:30N 29°44' W 095°03'0 0.0
2017-Sep-16 23:00N 29°44' W 095°03'0 0.0
2017-Sep-16 22:30N 29°44' W 095°03'0 0.0
2017-Sep-16 22:00N 29°44' W 095°03'0 0.0
2017-Sep-16 21:30N 29°44' W 095°03'0 0.0
2017-Sep-16 21:00N 29°44' W 095°03'0 0.0
2017-Sep-16 20:30N 29°44' W 095°03'0 0.0
2017-Sep-16 20:00N 29°44' W 095°03'0 0.0
2017-Sep-16 19:31N 29°44' W 095°03'0 0.0
2017-Sep-16 19:00N 29°44' W 095°03'0 0.0
2017-Sep-16 18:30N 29°44' W 095°03'0 0.0
2017-Sep-16 18:00N 29°44' W 095°03'0 0.1
2017-Sep-16 17:24N 29°44' W 095°03'0 0.0
2017-Sep-16 17:00N 29°44' W 095°03'0 0.8
2017-Sep-16 16:30N 29°44' W 095°03'2 2.6
2017-Sep-16 15:53N 29°46' W 095°04'2 2.5
2017-Sep-16 15:12N 29°47' W 095°04'0 0.8
2017-Sep-16 14:45N 29°47' W 095°04'2 0.3
2017-Sep-16 09:01N 29°46' W 095°05'0 6.8
2017-Sep-16 09:00N 29°46' W 095°05'1 0.3
2017-Sep-16 05:49N 29°46' W 095°06'0 0.0
2017-Sep-16 05:17N 29°46' W 095°06'0 0.0
2017-Sep-16 04:56N 29°46' W 095°06'0 0.0
2017-Sep-16 04:29N 29°46' W 095°06'1 1.6
2017-Sep-16 04:00N 29°46' W 095°05'0 0.3
2017-Sep-16 02:09N 29°46' W 095°05'1 4.1
2017-Sep-16 01:58N 29°45' W 095°04'2 4.8
2017-Sep-16 01:29N 29°44' W 095°02'3 5.6
2017-Sep-16 01:00N 29°42' W 094°60'3 5.8
2017-Sep-16 00:30N 29°39' W 094°58'4 7.2
2017-Sep-16 00:00N 29°36' W 094°57'3 7.0
2017-Sep-15 23:30N 29°33' W 094°55'3 6.9
2017-Sep-15 23:00N 29°30' W 094°52'  

Dump ship's entire track history